Time;durP1;ratioP1;P1;durP2;ratioP2;P2;SDS_P1;SDS_P2;PMS_P1;PMS_P2;Temp;Humidity;BMP_temperature;BMP_pressure;BME280_temperature;BME280_humidity;BME280_pressure;Samples;Min_cycle;Max_cycle;Signal;HPM_P1;HPM_P2
2023/10/09 04:01:18;;;;;;;4.90;2.97;;;17.60;64.90;;;;;;5823274;22;21018;-77
2023/10/09 04:03:45;;;;;;;7.10;3.60;;;17.50;65.10;;;;;;5015720;28;20437;-77
2023/10/09 04:06:12;;;;;;;6.63;3.10;;;17.60;65.10;;;;;;5015583;28;20494;-77
2023/10/09 04:08:46;;;;;;;6.10;4.27;;;17.50;65.10;;;;;;5015625;28;20527;-77
2023/10/09 04:11:16;;;;;;;7.60;3.73;;;17.60;65.30;;;;;;5015295;28;20976;-77
2023/10/09 04:13:45;;;;;;;5.50;3.40;;;17.70;65.10;;;;;;5015250;28;20444;-77
2023/10/09 04:16:33;;;;;;;5.30;3.20;;;17.80;65.40;;;;;;5024426;23;21024;-77
2023/10/09 04:19:06;;;;;;;7.80;3.67;;;17.80;64.90;;;;;;5015468;28;20490;-77
2023/10/09 04:21:35;;;;;;;7.23;3.30;;;17.80;64.90;;;;;;5015417;28;20465;-77
2023/10/09 04:26:47;;;;;;;7.03;3.23;;;17.80;65.10;;;;;;5015107;28;20566;-77
2023/10/09 04:29:18;;;;;;;6.50;4.17;;;17.80;65.40;;;;;;5014962;28;20795;-77
2023/10/09 04:31:51;;;;;;;5.83;3.50;;;17.80;65.70;;;;;;5015081;28;20460;-76
2023/10/09 04:34:34;;;;;;;6.80;3.50;;;17.80;64.50;;;;;;5015179;28;20527;-77
2023/10/09 04:37:19;;;;;;;7.77;3.40;;;17.80;65.20;;;;;;5015021;28;20467;-76
2023/10/09 04:40:10;;;;;;;5.27;2.80;;;17.70;65.20;;;;;;5015133;28;20490;-77
2023/10/09 04:42:38;;;;;;;5.60;2.90;;;17.70;64.90;;;;;;5014528;28;20950;-76
2023/10/09 04:48:06;;;;;;;7.30;3.00;;;17.70;64.40;;;;;;4990710;28;20435;-77
2023/10/09 04:53:23;;;;;;;8.00;3.87;;;17.50;64.50;;;;;;5012568;28;20943;-76
2023/10/09 04:55:57;;;;;;;6.30;2.83;;;17.50;64.80;;;;;;5014686;28;20463;-76
2023/10/09 04:58:25;;;;;;;4.53;3.03;;;17.50;65.10;;;;;;5014718;28;20862;-77
2023/10/09 05:01:12;;;;;;;5.23;3.73;;;17.50;65.00;;;;;;5014376;28;20454;-77
2023/10/09 05:03:44;;;;;;;8.80;3.87;;;17.50;64.90;;;;;;5014581;28;20984;-77
2023/10/09 05:06:21;;;;;;;6.73;3.23;;;17.40;64.70;;;;;;5014547;28;20468;-77
2023/10/09 05:08:48;;;;;;;5.10;3.00;;;17.40;64.60;;;;;;5014602;28;20428;-77
2023/10/09 05:14:11;;;;;;;6.10;3.47;;;17.50;64.60;;;;;;5014297;28;20857;-77
2023/10/09 05:16:48;;;;;;;4.70;2.57;;;17.50;63.90;;;;;;5014069;28;20519;-76
2023/10/09 05:19:33;;;;;;;5.93;2.83;;;17.50;64.10;;;;;;5014471;28;20432;-77
2023/10/09 05:22:07;;;;;;;7.40;3.87;;;17.50;64.20;;;;;;5014352;28;20523;-77
2023/10/09 05:24:43;;;;;;;6.40;3.00;;;17.60;64.20;;;;;;5014258;28;20436;-76
2023/10/09 05:30:24;;;;;;;8.10;3.10;;;17.50;64.30;;;;;;5006666;28;20439;-77
2023/10/09 05:32:55;;;;;;;6.67;3.50;;;17.50;64.40;;;;;;5013822;28;20999;-77
2023/10/09 05:35:39;;;;;;;4.77;2.80;;;17.50;64.10;;;;;;5013976;28;20559;-77
2023/10/09 05:38:23;;;;;;;7.10;2.90;;;17.50;64.30;;;;;;5013789;28;20861;-75
2023/10/09 05:40:53;;;;;;;5.33;3.23;;;17.50;64.20;;;;;;5014073;28;20515;-77
2023/10/09 05:46:15;;;;;;;5.20;2.97;;;17.50;64.40;;;;;;5013370;28;20817;-77
2023/10/09 05:48:54;;;;;;;6.77;3.57;;;17.50;64.20;;;;;;5014304;28;20456;-77
2023/10/09 05:55:09;;;;;;;7.20;3.00;;;17.50;64.20;;;;;;5013901;28;20396;-77
2023/10/09 06:06:01;;;;;;;3.83;2.60;;;17.60;64.10;;;;;;4996348;28;20542;-77
2023/10/09 06:09:10;;;;;;;11.07;3.53;;;17.60;63.80;;;;;;5013786;28;20452;-77
2023/10/09 06:11:38;;;;;;;5.97;2.83;;;17.70;63.60;;;;;;5013199;28;20878;-77
2023/10/09 06:14:12;;;;;;;5.20;3.00;;;17.80;63.70;;;;;;5013551;28;20452;-77
2023/10/09 06:16:43;;;;;;;8.03;3.13;;;17.80;63.60;;;;;;5013107;28;20927;-77
2023/10/09 06:19:12;;;;;;;5.70;3.13;;;17.90;63.40;;;;;;5013360;28;20443;-77
2023/10/09 06:21:39;;;;;;;3.90;2.80;;;17.90;63.60;;;;;;5013521;28;20467;-77
2023/10/09 06:27:12;;;;;;;4.30;2.43;;;17.90;63.40;;;;;;5012872;28;20467;-77
2023/10/09 06:29:50;;;;;;;6.00;3.00;;;18.00;63.30;;;;;;5013764;28;20421;-77
2023/10/09 06:32:34;;;;;;;8.13;3.27;;;18.20;63.30;;;;;;5013459;28;20428;-77
2023/10/09 06:43:28;;;;;;;8.33;3.27;;;18.40;63.10;;;;;;5091007;28;20755;-77
2023/10/09 06:45:57;;;;;;;6.30;3.20;;;18.40;63.10;;;;;;5090926;28;20504;-77
2023/10/09 06:48:44;;;;;;;5.43;3.60;;;18.30;63.00;;;;;;5091226;28;20609;-77
2023/10/09 06:51:15;;;;;;;5.67;3.13;;;18.40;63.00;;;;;;5091134;28;20448;-77
2023/10/09 06:53:58;;;;;;;4.60;2.47;;;18.40;63.20;;;;;;5090430;28;20843;-77
2023/10/09 06:57:12;;;;;;;6.20;3.20;;;18.30;63.20;;;;;;5090493;28;20488;-76
2023/10/09 06:59:17;;;;;;;6.00;2.77;;;18.30;63.90;;;;;;5090161;28;20445;-76
2023/10/09 07:01:45;;;;;;;5.30;2.60;;;18.20;63.80;;;;;;5090640;28;20436;-77
2023/10/09 07:04:18;;;;;;;7.30;2.80;;;18.20;63.60;;;;;;5090365;28;20442;-76
2023/10/09 07:06:56;;;;;;;5.70;2.83;;;18.30;63.90;;;;;;5090303;28;20462;-77
2023/10/09 07:09:27;;;;;;;6.67;3.07;;;18.30;63.90;;;;;;5090399;28;20421;-77
2023/10/09 07:12:09;;;;;;;4.93;3.27;;;18.40;63.40;;;;;;5090284;28;20512;-77
2023/10/09 07:17:23;;;;;;;5.60;3.73;;;18.40;63.60;;;;;;5089889;28;20456;-77
2023/10/09 07:20:08;;;;;;;4.97;4.03;;;18.30;63.70;;;;;;5090420;28;20536;-77
2023/10/09 07:22:52;;;;;;;5.60;2.57;;;18.30;63.70;;;;;;5089858;28;20890;-75
2023/10/09 07:28:18;;;;;;;6.33;2.87;;;18.40;65.80;;;;;;5090042;28;20401;-73
2023/10/09 07:30:46;;;;;;;3.80;2.77;;;18.50;64.40;;;;;;5090229;28;20429;-73
2023/10/09 07:33:17;;;;;;;4.70;2.70;;;18.60;64.20;;;;;;5089774;28;20502;-73
2023/10/09 07:35:47;;;;;;;6.77;3.50;;;18.70;63.70;;;;;;5089499;28;20456;-72
2023/10/09 07:38:19;;;;;;;4.83;2.70;;;18.80;64.10;;;;;;5089345;28;20832;-72
2023/10/09 07:40:56;;;;;;;5.50;2.80;;;18.90;63.20;;;;;;5089719;28;20433;-73
2023/10/09 07:43:26;;;;;;;4.63;3.63;;;18.90;63.20;;;;;;5089371;28;20833;-74
2023/10/09 07:48:48;;;;;;;5.17;3.07;;;19.00;62.80;;;;;;5079682;28;20409;-73
2023/10/09 07:51:14;;;;;;;6.17;2.90;;;19.10;63.70;;;;;;5076031;28;20426;-72
2023/10/09 07:53:44;;;;;;;9.07;3.17;;;19.10;62.70;;;;;;5075910;28;20918;-71
2023/10/09 07:56:13;;;;;;;5.40;2.60;;;19.00;62.40;;;;;;5075718;28;20492;-73
2023/10/09 07:58:46;;;;;;;5.10;2.50;;;19.00;62.90;;;;;;5075824;28;20483;-73
2023/10/09 08:01:22;;;;;;;5.37;3.50;;;19.10;63.30;;;;;;5075846;28;20426;-73
2023/10/09 08:03:57;;;;;;;4.43;2.60;;;19.20;63.00;;;;;;5075494;28;20906;-73
2023/10/09 08:06:38;;;;;;;5.10;3.50;;;19.20;63.00;;;;;;5075653;28;20457;-73
2023/10/09 08:09:45;;;;;;;8.40;3.03;;;19.20;62.00;;;;;;5075386;28;20832;-72
2023/10/09 08:14:59;;;;;;;5.93;3.57;;;19.20;62.70;;;;;;5074877;28;20916;-72
2023/10/09 08:17:28;;;;;;;5.47;2.60;;;19.30;62.50;;;;;;5075311;28;20485;-73
2023/10/09 08:19:56;;;;;;;6.67;3.50;;;19.30;61.90;;;;;;5075112;28;20872;-72
2023/10/09 08:22:42;;;;;;;4.30;2.00;;;19.30;62.70;;;;;;5075392;28;20447;-72
2023/10/09 08:25:26;;;;;;;6.17;2.87;;;19.50;62.80;;;;;;5075096;28;20515;-72
2023/10/09 08:27:54;;;;;;;5.30;2.90;;;19.60;62.30;;;;;;5075350;28;20422;-74
2023/10/09 08:30:40;;;;;;;5.43;3.17;;;19.80;61.50;;;;;;5075407;28;20485;-74
2023/10/09 08:35:55;;;;;;;4.63;2.63;;;20.20;61.60;;;;;;5075010;28;20523;-73
2023/10/09 08:38:24;;;;;;;4.83;2.40;;;20.30;60.50;;;;;;5075354;28;20506;-74
2023/10/09 08:40:54;;;;;;;5.80;2.83;;;20.30;61.30;;;;;;5075056;28;20437;-75
2023/10/09 08:43:23;;;;;;;7.00;3.20;;;20.40;60.90;;;;;;5075105;28;20430;-75
2023/10/09 08:45:51;;;;;;;7.37;3.00;;;20.50;61.20;;;;;;5075250;28;21012;-74
2023/10/09 08:48:21;;;;;;;6.17;2.83;;;20.50;61.00;;;;;;5074830;28;20441;-74
2023/10/09 08:50:49;;;;;;;10.47;3.37;;;20.50;61.20;;;;;;5074891;28;20441;-74
2023/10/09 08:53:17;;;;;;;7.57;3.10;;;20.60;60.70;;;;;;5074813;28;20442;-73
2023/10/09 08:55:46;;;;;;;6.17;3.63;;;20.60;61.50;;;;;;5075077;28;20465;-73
2023/10/09 08:58:18;;;;;;;6.73;2.90;;;20.80;61.50;;;;;;5075459;28;20481;-74
2023/10/09 09:00:46;;;;;;;6.17;3.30;;;20.80;61.50;;;;;;5074490;28;20511;-74
2023/10/09 09:03:15;;;;;;;6.10;2.80;;;20.70;62.10;;;;;;5074553;28;20445;-75
2023/10/09 09:05:42;;;;;;;4.80;2.70;;;20.80;61.60;;;;;;5074447;28;20515;-73
2023/10/09 09:08:24;;;;;;;8.80;2.87;;;20.70;62.30;;;;;;5074876;28;20442;-74
2023/10/09 09:10:58;;;;;;;8.00;3.63;;;20.70;62.70;;;;;;5074529;28;20433;-71
2023/10/09 09:13:27;;;;;;;4.60;2.70;;;20.70;62.20;;;;;;5074476;28;20437;-71
2023/10/09 09:15:58;;;;;;;4.50;2.57;;;20.60;61.80;;;;;;5074189;28;20467;-73
2023/10/09 09:18:31;;;;;;;8.10;3.00;;;20.60;63.40;;;;;;5074342;28;20552;-73
2023/10/09 09:20:58;;;;;;;4.97;2.77;;;20.70;63.60;;;;;;5074666;28;20484;-73
2023/10/09 09:23:26;;;;;;;5.53;2.90;;;20.60;62.60;;;;;;5074220;28;20438;-75
2023/10/09 09:25:59;;;;;;;7.00;2.43;;;20.60;63.70;;;;;;5074034;28;20465;-74
2023/10/09 09:28:26;;;;;;;8.23;3.00;;;20.70;62.50;;;;;;5073814;28;20414;-75
2023/10/09 09:30:54;;;;;;;4.50;2.50;;;20.70;63.50;;;;;;5074056;28;20820;-74
2023/10/09 09:33:39;;;;;;;6.57;3.27;;;20.70;61.90;;;;;;5073949;28;20446;-74
2023/10/09 09:36:10;;;;;;;5.50;2.57;;;20.80;62.70;;;;;;5073664;28;20863;-73
2023/10/09 09:38:42;;;;;;;4.40;2.40;;;20.90;63.20;;;;;;5073667;28;20883;-74
2023/10/09 09:41:09;;;;;;;6.50;3.40;;;21.00;63.70;;;;;;5073936;28;20475;-74
2023/10/09 09:43:40;;;;;;;5.03;3.17;;;21.20;63.80;;;;;;5073942;28;20448;-74
2023/10/09 09:46:08;;;;;;;7.60;3.20;;;21.40;61.90;;;;;;5073438;28;20461;-75
2023/10/09 09:48:46;;;;;;;5.90;2.90;;;21.50;62.00;;;;;;5073811;28;20429;-74
2023/10/09 09:51:15;;;;;;;7.43;3.83;;;21.60;62.20;;;;;;5073499;28;20528;-74
2023/10/09 09:53:42;;;;;;;5.80;2.73;;;21.70;61.80;;;;;;5073694;28;20452;-74
2023/10/09 09:56:14;;;;;;;6.00;2.97;;;21.80;63.00;;;;;;5073194;28;20981;-74
2023/10/09 09:58:44;;;;;;;5.53;2.60;;;22.00;61.60;;;;;;5073596;28;20461;-75
2023/10/09 10:01:16;;;;;;;4.40;2.60;;;22.10;61.10;;;;;;5073543;28;20445;-75
2023/10/09 10:03:49;;;;;;;4.77;2.83;;;22.10;61.20;;;;;;5073501;28;20495;-75
2023/10/09 10:06:20;;;;;;;9.83;3.30;;;22.20;61.20;;;;;;5073361;28;20466;-75
2023/10/09 10:08:50;;;;;;;7.27;3.27;;;22.40;61.30;;;;;;5073500;28;20425;-75
2023/10/09 10:11:45;;;;;;;7.90;3.23;;;22.40;61.20;;;;;;5072905;28;20827;-75
2023/10/09 10:14:21;;;;;;;6.53;3.40;;;22.50;62.00;;;;;;5073385;28;20441;-75
2023/10/09 10:17:05;;;;;;;5.93;2.93;;;22.70;61.00;;;;;;5082430;22;20497;-77
2023/10/09 10:22:51;;;;;;;5.53;3.27;;;22.90;60.10;;;;;;5053178;28;20915;-76
2023/10/09 10:25:35;;;;;;;4.13;2.70;;;22.80;60.20;;;;;;5052875;28;20463;-77
2023/10/09 10:28:28;;;;;;;7.87;3.77;;;22.80;61.40;;;;;;5053159;28;20442;-76
2023/10/09 10:30:55;;;;;;;6.50;3.13;;;22.80;60.40;;;;;;5052789;28;20476;-76
2023/10/09 10:33:24;;;;;;;8.10;4.30;;;23.00;62.20;;;;;;5053051;28;20447;-77
2023/10/09 10:35:54;;;;;;;6.30;3.30;;;23.10;62.00;;;;;;5052964;28;20474;-77
2023/10/09 10:38:36;;;;;;;5.80;2.80;;;23.20;61.10;;;;;;5052984;28;20477;-77
2023/10/09 10:41:16;;;;;;;10.63;5.10;;;23.40;61.30;;;;;;5053009;28;20437;-77
2023/10/09 10:43:54;;;;;;;8.00;3.47;;;23.50;59.50;;;;;;5052667;28;20772;-76
2023/10/09 10:46:34;;;;;;;6.13;4.07;;;23.70;59.20;;;;;;5052897;28;20558;-77
2023/10/09 10:49:14;;;;;;;7.87;3.47;;;24.00;59.30;;;;;;5053331;28;20541;-77
2023/10/09 10:51:48;;;;;;;5.97;3.80;;;24.10;58.30;;;;;;5052601;28;20974;-76
2023/10/09 10:57:19;;;;;;;7.37;3.87;;;24.40;55.30;;;;;;5052884;28;21040;-75
2023/10/09 10:59:49;;;;;;;5.90;3.40;;;24.40;54.30;;;;;;5052893;28;20795;-76
2023/10/09 11:02:16;;;;;;;6.47;3.93;;;24.30;54.80;;;;;;5052643;28;20940;-76
2023/10/09 11:04:53;;;;;;;8.37;4.10;;;24.20;53.60;;;;;;5053316;28;20442;-75
2023/10/09 11:07:27;;;;;;;8.47;4.07;;;24.20;54.00;;;;;;5052837;28;20918;-77
2023/10/09 11:10:08;;;;;;;5.40;3.60;;;24.20;54.20;;;;;;5053102;28;20423;-75
2023/10/09 11:12:55;;;;;;;6.80;3.13;;;24.20;53.70;;;;;;5053265;28;20427;-76
2023/10/09 11:15:37;;;;;;;10.00;3.27;;;24.00;54.00;;;;;;5052605;28;20488;-76
2023/10/09 11:18:07;;;;;;;7.87;3.77;;;24.00;53.50;;;;;;5052465;28;20990;-76
2023/10/09 11:20:36;;;;;;;10.53;4.13;;;24.00;53.90;;;;;;5052733;28;20442;-76
2023/10/09 11:23:14;;;;;;;13.07;4.97;;;24.10;55.70;;;;;;5053768;28;20543;-76
2023/10/09 11:25:50;;;;;;;7.17;3.87;;;24.30;54.00;;;;;;5056462;28;20473;-75
2023/10/09 11:28:29;;;;;;;8.60;3.20;;;24.50;52.60;;;;;;5056446;28;20422;-75
2023/10/09 11:30:56;;;;;;;8.10;4.13;;;24.70;55.20;;;;;;5056378;28;20430;-75
2023/10/09 11:33:22;;;;;;;11.47;4.17;;;24.70;53.30;;;;;;5056240;28;20454;-75
2023/10/09 11:35:58;;;;;;;9.03;3.87;;;24.70;52.10;;;;;;5056274;28;20844;-77
2023/10/09 11:38:26;;;;;;;7.67;3.87;;;24.70;52.60;;;;;;5056263;28;20556;-78
2023/10/09 11:41:06;;;;;;;6.23;3.03;;;24.70;52.50;;;;;;5056392;28;20533;-77
2023/10/09 11:43:51;;;;;;;7.37;4.37;;;24.70;50.50;;;;;;5056540;28;20457;-76
2023/10/09 11:49:26;;;;;;;5.87;3.43;;;24.60;50.40;;;;;;5056055;28;21018;-76
2023/10/09 11:54:39;;;;;;;7.97;3.43;;;24.40;51.40;;;;;;5056040;28;20413;-75
2023/10/09 11:57:06;;;;;;;6.40;3.43;;;24.40;52.90;;;;;;5055782;28;20462;-76
2023/10/09 11:59:37;;;;;;;7.00;3.40;;;24.20;51.00;;;;;;5055838;28;20442;-75
2023/10/09 12:02:04;;;;;;;10.13;3.70;;;24.20;51.90;;;;;;5056196;28;20427;-76
2023/10/09 12:04:31;;;;;;;8.33;3.80;;;24.10;51.70;;;;;;5055446;28;20447;-76
2023/10/09 12:07:06;;;;;;;8.70;3.40;;;24.10;51.80;;;;;;5055612;28;20478;-74
2023/10/09 12:09:34;;;;;;;7.90;4.13;;;24.10;52.30;;;;;;5055622;28;20792;-76
2023/10/09 12:12:03;;;;;;;7.03;4.13;;;24.10;52.20;;;;;;5055193;28;21026;-77
2023/10/09 12:14:33;;;;;;;8.23;3.50;;;24.10;52.60;;;;;;5055582;28;20863;-74
2023/10/09 12:17:05;;;;;;;9.10;3.70;;;24.10;53.10;;;;;;5054987;28;20496;-75
2023/10/09 12:19:32;;;;;;;4.10;2.83;;;24.10;52.50;;;;;;5055118;28;20860;-75
2023/10/09 12:22:00;;;;;;;7.93;4.57;;;24.10;50.90;;;;;;5055317;28;20446;-74
2023/10/09 12:24:27;;;;;;;7.63;3.70;;;24.20;53.30;;;;;;5055311;28;20438;-76
2023/10/09 12:26:53;;;;;;;7.97;3.83;;;24.20;51.50;;;;;;5055204;28;20467;-76
2023/10/09 12:29:22;;;;;;;5.10;3.20;;;24.30;51.40;;;;;;5055161;28;20520;-76
2023/10/09 12:31:48;;;;;;;6.23;3.70;;;24.30;54.60;;;;;;5055133;28;20541;-76
2023/10/09 12:34:16;;;;;;;5.30;3.20;;;24.30;55.60;;;;;;5055041;28;20492;-76
2023/10/09 12:36:43;;;;;;;6.87;4.03;;;24.40;52.40;;;;;;5055020;28;20626;-76
2023/10/09 12:39:17;;;;;;;7.23;4.10;;;24.60;55.60;;;;;;5054966;28;20478;-76
2023/10/09 12:41:44;;;;;;;7.10;4.23;;;24.90;54.20;;;;;;5055829;28;20459;-75
2023/10/09 12:44:14;;;;;;;6.33;3.20;;;25.30;50.40;;;;;;5054921;28;20445;-76
2023/10/09 12:46:51;;;;;;;9.30;3.20;;;25.50;50.50;;;;;;5054807;28;20470;-75
2023/10/09 12:49:19;;;;;;;6.70;3.50;;;25.80;48.50;;;;;;5054863;28;20422;-76
2023/10/09 12:51:45;;;;;;;5.93;3.10;;;26.00;47.30;;;;;;5054884;28;20439;-76
2023/10/09 12:54:14;;;;;;;5.10;3.20;;;26.30;48.80;;;;;;5054426;28;20439;-75
2023/10/09 12:56:41;;;;;;;4.83;3.63;;;26.60;47.70;;;;;;5054615;28;20473;-75
2023/10/09 12:59:14;;;;;;;10.37;3.80;;;26.80;47.80;;;;;;5054587;28;20478;-75
2023/10/09 13:01:45;;;;;;;6.93;3.60;;;26.90;48.70;;;;;;5054661;28;20427;-75
2023/10/09 13:04:15;;;;;;;6.57;3.80;;;27.10;48.90;;;;;;5054358;28;20433;-75
2023/10/09 13:06:43;;;;;;;5.50;3.60;;;27.40;49.50;;;;;;5054138;28;20912;-76
2023/10/09 13:09:10;;;;;;;6.03;4.20;;;27.60;47.30;;;;;;5054499;28;20445;-76
2023/10/09 13:11:38;;;;;;;7.90;4.30;;;27.60;47.10;;;;;;5054485;28;20446;-76
2023/10/09 13:14:11;;;;;;;6.10;4.27;;;27.60;46.90;;;;;;5054576;28;20457;-76
2023/10/09 13:16:38;;;;;;;5.73;3.70;;;27.50;47.50;;;;;;5054058;28;20482;-76
2023/10/09 13:19:09;;;;;;;7.40;3.50;;;27.50;47.50;;;;;;5053980;28;20998;-77
2023/10/09 13:21:40;;;;;;;5.07;3.10;;;27.70;46.10;;;;;;5054829;28;20423;-75
2023/10/09 13:24:12;;;;;;;6.10;3.50;;;28.10;43.20;;;;;;5054511;28;20492;-75
2023/10/09 13:26:40;;;;;;;7.20;3.47;;;28.30;40.10;;;;;;5054276;28;20463;-75
2023/10/09 13:29:09;;;;;;;6.57;3.37;;;28.40;41.30;;;;;;5054248;28;20875;-77
2023/10/09 13:31:37;;;;;;;3.50;2.90;;;28.70;39.60;;;;;;5054128;28;20449;-75
2023/10/09 13:34:09;;;;;;;7.33;3.33;;;29.00;40.10;;;;;;5053768;28;20496;-75
2023/10/09 13:36:37;;;;;;;5.10;3.23;;;29.60;38.00;;;;;;5053988;28;20551;-75
2023/10/09 13:41:46;;;;;;;6.83;2.97;;;30.80;35.60;;;;;;5053732;28;20433;-75
2023/10/09 13:44:12;;;;;;;5.37;3.00;;;32.00;35.50;;;;;;5053881;28;20476;-74
2023/10/09 13:46:41;;;;;;;6.70;3.07;;;33.20;33.40;;;;;;5053237;28;20469;-75
2023/10/09 13:49:12;;;;;;;5.47;3.20;;;34.70;30.70;;;;;;5053784;28;20529;-77
2023/10/09 13:51:43;;;;;;;4.40;2.97;;;36.30;29.60;;;;;;5054096;28;20513;-78
2023/10/09 13:54:10;;;;;;;5.73;3.37;;;37.20;29.30;;;;;;5053473;28;20981;-78
2023/10/09 13:56:39;;;;;;;4.33;3.13;;;37.40;29.70;;;;;;5053673;28;20466;-77
2023/10/09 13:59:10;;;;;;;7.80;3.20;;;36.30;28.80;;;;;;5053481;28;20482;-77
2023/10/09 14:01:38;;;;;;;4.00;2.67;;;35.20;29.60;;;;;;5053648;28;20488;-76
2023/10/09 14:04:07;;;;;;;4.03;2.90;;;35.40;31.20;;;;;;5053528;28;20445;-77
2023/10/09 14:06:37;;;;;;;4.47;3.00;;;36.70;29.30;;;;;;5053328;28;20465;-77
2023/10/09 14:09:05;;;;;;;7.50;3.37;;;38.00;28.40;;;;;;5053456;28;20438;-78
2023/10/09 14:11:32;;;;;;;5.40;2.97;;;38.60;28.70;;;;;;5053379;28;20449;-77
2023/10/09 14:14:00;;;;;;;3.97;2.70;;;38.50;27.60;;;;;;5053335;28;20437;-76
2023/10/09 14:16:28;;;;;;;6.00;3.30;;;39.00;27.80;;;;;;5052950;28;20505;-76
2023/10/09 14:18:59;;;;;;;5.03;3.17;;;38.80;27.90;;;;;;5053203;28;20485;-77
2023/10/09 14:21:28;;;;;;;4.50;3.10;;;38.50;27.50;;;;;;5053238;28;20442;-76
2023/10/09 14:23:57;;;;;;;3.67;3.30;;;37.60;28.00;;;;;;5052898;28;20935;-77
2023/10/09 14:26:26;;;;;;;5.30;2.87;;;36.40;28.40;;;;;;5053063;28;20489;-76
2023/10/09 14:28:53;;;;;;;4.73;3.33;;;35.80;29.20;;;;;;5053168;28;20449;-76
2023/10/09 14:31:26;;;;;;;4.63;3.30;;;35.20;29.40;;;;;;5052813;28;20932;-75
2023/10/09 14:33:53;;;;;;;4.47;3.70;;;34.30;29.40;;;;;;5053071;28;20430;-76
2023/10/09 14:36:21;;;;;;;4.17;3.03;;;33.60;30.10;;;;;;5053065;28;20470;-76
2023/10/09 14:38:52;;;;;;;3.67;2.87;;;33.30;30.30;;;;;;5052688;28;20518;-76
2023/10/09 14:41:23;;;;;;;3.40;3.10;;;33.10;29.70;;;;;;5053066;28;20430;-76
2023/10/09 14:43:52;;;;;;;3.87;3.03;;;32.80;28.50;;;;;;5053054;28;20450;-75
2023/10/09 14:46:23;;;;;;;5.03;2.93;;;32.20;29.20;;;;;;5052621;28;20991;-76
2023/10/09 14:48:52;;;;;;;4.17;3.20;;;31.70;29.40;;;;;;5053017;28;20454;-76
2023/10/09 14:51:26;;;;;;;3.87;3.17;;;30.90;29.60;;;;;;5052633;28;20939;-75
2023/10/09 14:53:55;;;;;;;4.63;3.10;;;30.40;31.20;;;;;;5052644;28;20927;-76
2023/10/09 14:56:28;;;;;;;3.57;3.10;;;30.00;31.30;;;;;;5052826;28;20474;-76
2023/10/09 14:58:56;;;;;;;3.67;3.10;;;29.50;31.50;;;;;;5055359;28;20466;-76
2023/10/09 15:01:25;;;;;;;3.57;2.97;;;29.20;32.60;;;;;;5056877;28;20450;-76
2023/10/09 15:03:52;;;;;;;5.83;3.43;;;28.80;34.00;;;;;;5056875;28;20446;-76
2023/10/09 15:06:19;;;;;;;4.57;3.60;;;28.50;35.00;;;;;;5056744;28;20471;-77
2023/10/09 15:08:46;;;;;;;5.40;3.53;;;28.30;36.50;;;;;;5056433;28;20813;-76
2023/10/09 15:11:14;;;;;;;3.70;2.93;;;27.80;37.30;;;;;;5056365;28;20928;-76
2023/10/09 15:13:42;;;;;;;4.17;3.00;;;27.50;38.30;;;;;;5056643;28;20533;-75
2023/10/09 15:16:10;;;;;;;3.87;3.00;;;27.50;39.20;;;;;;5056294;28;20474;-76
2023/10/09 15:18:38;;;;;;;3.97;3.57;;;27.30;38.80;;;;;;5056185;28;20940;-75
2023/10/09 15:21:06;;;;;;;5.80;3.40;;;27.30;39.60;;;;;;5056562;28;20509;-74
2023/10/09 15:23:33;;;;;;;7.83;3.40;;;27.30;39.20;;;;;;5056456;28;20446;-76
2023/10/09 15:26:01;;;;;;;6.77;3.20;;;27.10;39.30;;;;;;5056358;28;20466;-74
2023/10/09 15:28:32;;;;;;;6.83;3.70;;;26.90;39.70;;;;;;5056076;28;20989;-75
2023/10/09 15:31:00;;;;;;;4.63;3.40;;;26.50;39.80;;;;;;5056344;28;20505;-76
2023/10/09 15:33:30;;;;;;;6.23;3.47;;;26.30;40.40;;;;;;5056268;28;20446;-76
2023/10/09 15:35:58;;;;;;;4.97;3.63;;;26.20;40.30;;;;;;5056209;28;20557;-75
2023/10/09 15:38:25;;;;;;;6.93;3.50;;;26.00;41.30;;;;;;5055879;28;20572;-75
2023/10/09 15:40:52;;;;;;;5.83;3.10;;;26.00;41.30;;;;;;5056148;28;20446;-76
2023/10/09 15:43:18;;;;;;;5.93;3.37;;;25.90;41.80;;;;;;5056638;28;20442;-76
2023/10/09 15:45:47;;;;;;;4.77;3.53;;;25.90;41.50;;;;;;5055975;28;20458;-76
2023/10/09 15:48:16;;;;;;;5.80;3.60;;;25.90;42.60;;;;;;5056016;28;20454;-75
2023/10/09 15:50:48;;;;;;;4.53;2.60;;;25.80;42.40;;;;;;5055951;28;20449;-76
2023/10/09 15:53:16;;;;;;;6.00;4.03;;;25.70;43.20;;;;;;5056070;28;20457;-76
2023/10/09 15:55:43;;;;;;;6.33;3.77;;;25.70;44.00;;;;;;5055834;28;20549;-75
2023/10/09 15:58:10;;;;;;;5.17;3.13;;;25.50;43.00;;;;;;5055706;28;20458;-76
2023/10/09 16:00:37;;;;;;;4.30;2.87;;;25.30;43.00;;;;;;5055895;28;20450;-76
2023/10/09 16:03:08;;;;;;;6.07;3.83;;;25.30;43.20;;;;;;5056567;28;20477;-76
2023/10/09 16:05:36;;;;;;;6.00;3.40;;;25.30;43.40;;;;;;5055661;28;20478;-75
2023/10/09 16:08:04;;;;;;;7.03;3.47;;;25.30;43.80;;;;;;5055617;28;20442;-76
2023/10/09 16:10:31;;;;;;;5.50;3.00;;;25.10;43.80;;;;;;5055231;28;20504;-76
2023/10/09 16:13:00;;;;;;;5.67;3.77;;;25.10;44.50;;;;;;5055713;28;20501;-75
2023/10/09 16:15:27;;;;;;;5.50;3.60;;;25.10;45.50;;;;;;5055456;28;20486;-76
2023/10/09 16:18:02;;;;;;;6.43;3.90;;;25.00;46.50;;;;;;5123608;22;20501;-73
2023/10/09 16:20:31;;;;;;;4.00;3.50;;;25.00;47.00;;;;;;5075688;28;20488;-74
2023/10/09 16:23:04;;;;;;;7.20;3.33;;;25.00;47.80;;;;;;5075393;28;20498;-75
2023/10/09 16:25:30;;;;;;;5.33;3.63;;;24.90;48.40;;;;;;5075467;28;20484;-75
2023/10/09 16:27:58;;;;;;;5.60;3.10;;;24.80;49.60;;;;;;5075422;28;20458;-75
2023/10/09 16:30:25;;;;;;;6.70;3.50;;;24.60;49.70;;;;;;5075097;28;20545;-75
2023/10/09 16:32:52;;;;;;;5.87;3.43;;;24.60;49.70;;;;;;5075024;28;20434;-77
2023/10/09 16:35:21;;;;;;;5.60;4.10;;;24.50;49.90;;;;;;5075104;28;20506;-76
2023/10/09 16:37:49;;;;;;;5.70;4.00;;;24.40;50.30;;;;;;5074995;28;20508;-76
2023/10/09 16:40:20;;;;;;;7.67;4.10;;;24.30;50.30;;;;;;5074962;28;20482;-76
2023/10/09 16:42:49;;;;;;;5.60;3.40;;;24.10;49.80;;;;;;5075001;28;20429;-76
2023/10/09 16:45:17;;;;;;;6.83;2.97;;;24.00;50.30;;;;;;5075030;28;20449;-76
2023/10/09 16:47:45;;;;;;;4.77;3.20;;;23.90;50.40;;;;;;5074942;28;20473;-77
2023/10/09 16:50:13;;;;;;;6.30;4.50;;;23.80;51.70;;;;;;5075167;28;20521;-76
2023/10/09 16:52:40;;;;;;;7.13;4.63;;;23.70;51.70;;;;;;5074496;28;20819;-76
2023/10/09 16:55:09;;;;;;;6.03;4.10;;;23.60;51.20;;;;;;5075523;28;20780;-76
2023/10/09 16:57:40;;;;;;;6.30;3.97;;;23.50;52.30;;;;;;5074678;28;20485;-76
2023/10/09 17:00:12;;;;;;;8.73;3.60;;;23.40;52.20;;;;;;5074659;28;20509;-76
2023/10/09 17:02:40;;;;;;;5.70;3.87;;;23.40;52.80;;;;;;5074618;28;20449;-76
2023/10/09 17:05:12;;;;;;;6.23;3.43;;;23.30;52.40;;;;;;5074576;28;20452;-76
2023/10/09 17:07:39;;;;;;;7.20;4.40;;;23.20;52.40;;;;;;5074432;28;20458;-76
2023/10/09 17:10:14;;;;;;;6.50;3.70;;;23.00;52.60;;;;;;5074406;28;20559;-76
2023/10/09 17:12:46;;;;;;;8.57;3.97;;;23.10;53.20;;;;;;5074376;28;20809;-76
2023/10/09 17:15:14;;;;;;;7.60;4.17;;;23.00;54.00;;;;;;5074043;28;20795;-76
2023/10/09 17:17:45;;;;;;;7.50;4.50;;;23.00;54.80;;;;;;5073950;28;20488;-76
2023/10/09 17:20:13;;;;;;;5.60;3.97;;;23.00;54.90;;;;;;5073545;28;20469;-76
2023/10/09 17:22:39;;;;;;;9.77;4.23;;;22.90;55.10;;;;;;5073949;28;20441;-76
2023/10/09 17:25:07;;;;;;;7.20;4.17;;;22.70;54.10;;;;;;5074097;28;20441;-76
2023/10/09 17:27:34;;;;;;;6.77;3.73;;;22.70;54.70;;;;;;5073987;28;20457;-76
2023/10/09 17:30:02;;;;;;;6.07;4.00;;;22.60;54.80;;;;;;5073689;28;20933;-76
2023/10/09 17:32:29;;;;;;;8.03;4.10;;;22.60;55.20;;;;;;5073619;28;20442;-76
2023/10/09 17:34:56;;;;;;;5.10;3.50;;;22.50;55.90;;;;;;5073613;28;20938;-76
2023/10/09 17:37:23;;;;;;;7.00;3.80;;;22.50;56.10;;;;;;5073471;28;21008;-76
2023/10/09 17:39:50;;;;;;;6.57;3.50;;;22.40;56.40;;;;;;5073768;28;20509;-76
2023/10/09 17:42:17;;;;;;;12.73;4.40;;;22.40;56.70;;;;;;5073789;28;20839;-76
2023/10/09 17:44:43;;;;;;;8.60;4.03;;;22.20;57.00;;;;;;5073803;28;20481;-75
2023/10/09 17:47:11;;;;;;;5.43;3.77;;;22.20;57.80;;;;;;5073632;28;20468;-75
2023/10/09 17:49:38;;;;;;;7.20;4.13;;;22.10;57.70;;;;;;5073682;28;20473;-75
2023/10/09 17:52:11;;;;;;;4.73;3.50;;;22.00;57.70;;;;;;5073659;28;20895;-75
2023/10/09 17:54:39;;;;;;;9.63;4.20;;;22.00;57.80;;;;;;5073666;28;20516;-75
2023/10/09 17:57:05;;;;;;;5.87;3.60;;;21.90;57.80;;;;;;5073506;28;20469;-76
2023/10/09 17:59:33;;;;;;;10.00;4.83;;;21.80;57.90;;;;;;5073433;28;20477;-75
2023/10/09 18:01:59;;;;;;;8.57;4.10;;;21.70;58.20;;;;;;5073278;28;20445;-74
2023/10/09 18:04:35;;;;;;;7.40;4.23;;;21.60;58.20;;;;;;5073636;28;20442;-71
2023/10/09 18:07:04;;;;;;;5.50;3.53;;;21.50;58.40;;;;;;5073774;28;20481;-75
2023/10/09 18:09:32;;;;;;;6.13;4.07;;;21.50;58.40;;;;;;5073419;28;20443;-76
2023/10/09 18:12:01;;;;;;;6.63;3.50;;;21.40;57.90;;;;;;5073384;28;20445;-76
2023/10/09 18:14:30;;;;;;;7.40;3.87;;;21.40;57.80;;;;;;5073376;28;20452;-75
2023/10/09 18:16:57;;;;;;;7.70;3.57;;;21.30;57.90;;;;;;5073030;28;20464;-77